createdAt,value
2018-12-08T00:00:26.844Z,11.04
2018-12-08T00:02:56.295Z,11.03
2018-12-08T00:05:36.161Z,11.02
2018-12-08T00:08:05.477Z,11.00
2018-12-08T00:10:34.629Z,11.03
2018-12-08T00:13:03.841Z,11.06
2018-12-08T00:15:33.991Z,11.08
2018-12-08T00:18:03.246Z,11.10
2018-12-08T00:20:32.345Z,11.13
2018-12-08T00:23:02.862Z,11.17
2018-12-08T00:25:32.412Z,11.17
2018-12-08T00:28:01.733Z,11.18
2018-12-08T00:30:41.851Z,11.19
2018-12-08T00:33:11.921Z,11.20
2018-12-08T00:35:41.065Z,11.20
2018-12-08T00:38:10.233Z,11.21
2018-12-08T00:40:39.409Z,11.21
2018-12-08T00:43:09.061Z,11.23
2018-12-08T00:45:38.158Z,11.24
2018-12-08T00:48:07.902Z,11.25
2018-12-08T00:50:37.189Z,11.25
2018-12-08T00:53:06.436Z,11.25
2018-12-08T00:55:36.267Z,11.24
2018-12-08T00:58:05.921Z,11.23
2018-12-08T01:00:35.149Z,11.24
2018-12-08T01:03:04.555Z,11.25
2018-12-08T01:05:33.721Z,11.27
2018-12-08T01:08:02.891Z,11.28
2018-12-08T01:10:32.015Z,11.29
2018-12-08T01:13:01.152Z,11.30
2018-12-08T01:15:30.319Z,11.32
2018-12-08T01:18:00.419Z,11.34
2018-12-08T01:20:29.559Z,11.37
2018-12-08T01:22:58.730Z,11.35
2018-12-08T01:25:27.859Z,11.34
2018-12-08T01:27:56.956Z,11.31
2018-12-08T01:30:26.667Z,11.31
2018-12-08T01:32:56.233Z,11.30
2018-12-08T01:35:26.276Z,11.27
2018-12-08T01:38:01.825Z,11.29
2018-12-08T01:40:32.800Z,11.30
2018-12-08T01:43:03.735Z,11.31
2018-12-08T01:45:32.904Z,11.30
2018-12-08T01:48:02.108Z,11.30
2018-12-08T01:50:31.928Z,11.30
2018-12-08T01:53:03.346Z,11.30
2018-12-08T01:55:32.433Z,11.31
2018-12-08T01:58:01.535Z,11.33
2018-12-08T02:00:31.864Z,11.31
2018-12-08T02:03:01.791Z,11.31
2018-12-08T02:05:33.655Z,11.31
2018-12-08T02:08:04.067Z,11.34
2018-12-08T02:10:37.055Z,11.33
2018-12-08T02:13:06.239Z,11.34
2018-12-08T02:15:35.487Z,11.35
2018-12-08T02:18:04.660Z,11.37
2018-12-08T02:20:35.814Z,11.37
2018-12-08T02:23:04.938Z,11.36
2018-12-08T02:25:34.125Z,11.37
2018-12-08T02:28:03.306Z,11.36
2018-12-08T02:30:32.413Z,11.34
2018-12-08T02:33:01.676Z,11.34
2018-12-08T02:35:30.867Z,11.33
2018-12-08T02:38:00.060Z,11.34
2018-12-08T02:40:29.264Z,11.36
2018-12-08T02:42:58.556Z,11.39
2018-12-08T02:45:27.705Z,11.42
2018-12-08T02:47:56.850Z,11.42
2018-12-08T02:50:25.981Z,11.37
2018-12-08T02:52:55.092Z,11.32
2018-12-08T02:55:24.371Z,11.31
2018-12-08T02:57:53.472Z,11.27
2018-12-08T03:00:22.645Z,11.26
2018-12-08T03:02:51.833Z,11.29
2018-12-08T03:05:21.160Z,11.25
2018-12-08T03:07:50.370Z,11.18
2018-12-08T03:10:19.953Z,11.12
2018-12-08T03:12:49.356Z,11.07
2018-12-08T03:15:18.790Z,11.04
2018-12-08T03:17:47.957Z,11.06
2018-12-08T03:20:17.365Z,11.09
2018-12-08T03:22:46.462Z,11.12
2018-12-08T03:25:15.569Z,11.16
2018-12-08T03:27:44.748Z,11.20
2018-12-08T03:30:14.963Z,11.22
2018-12-08T03:32:44.099Z,11.24
2018-12-08T03:35:13.165Z,11.25
2018-12-08T03:37:42.335Z,11.27
2018-12-08T03:40:11.481Z,11.28
2018-12-08T03:42:40.824Z,11.29
2018-12-08T03:45:11.017Z,11.32
2018-12-08T03:47:40.963Z,11.36
2018-12-08T03:50:11.771Z,11.37
2018-12-08T03:55:15.273Z,11.38
2018-12-08T03:57:45.163Z,11.36
2018-12-08T04:00:15.275Z,11.36
2018-12-08T04:02:44.365Z,11.35
2018-12-08T04:05:13.501Z,11.35
2018-12-08T04:07:42.646Z,11.34
2018-12-08T04:10:11.864Z,11.34
2018-12-08T04:12:41.077Z,11.35
2018-12-08T04:15:10.283Z,11.35
2018-12-08T04:17:40.312Z,11.37
2018-12-08T04:20:11.353Z,11.39
2018-12-08T04:22:42.178Z,11.40
2018-12-08T04:40:30.952Z,11.42
2018-12-08T04:43:00.151Z,11.40
2018-12-08T04:45:29.407Z,11.37
2018-12-08T04:47:58.558Z,11.36
2018-12-08T04:50:27.611Z,11.35
2018-12-08T04:52:56.701Z,11.28
2018-12-08T04:55:25.924Z,11.20
2018-12-08T04:57:55.127Z,11.18
2018-12-08T05:00:24.397Z,11.18
2018-12-08T05:02:53.492Z,11.18
2018-12-08T05:05:22.640Z,11.17
2018-12-08T05:07:51.822Z,11.18
2018-12-08T05:10:21.132Z,11.20
2018-12-08T05:12:50.313Z,11.19
2018-12-08T05:15:19.403Z,11.13
2018-12-08T05:17:51.567Z,11.10
2018-12-08T05:20:20.777Z,11.11
2018-12-08T05:22:54.025Z,11.13
2018-12-08T05:25:23.188Z,11.17
2018-12-08T05:27:52.420Z,11.18
2018-12-08T05:30:21.601Z,11.19
2018-12-08T05:32:50.712Z,11.19
2018-12-08T05:35:19.913Z,11.18
2018-12-08T05:37:49.045Z,11.21
2018-12-08T05:40:18.126Z,11.22
2018-12-08T05:42:47.218Z,11.21
2018-12-08T05:45:16.362Z,11.21
2018-12-08T05:47:45.687Z,11.22
2018-12-08T05:50:14.868Z,11.25
2018-12-08T05:52:44.009Z,11.28
2018-12-08T05:55:13.154Z,11.28
2018-12-08T05:57:42.320Z,11.29
2018-12-08T06:00:11.624Z,11.31
2018-12-08T06:02:40.724Z,11.33
2018-12-08T06:05:10.413Z,11.33
2018-12-08T06:07:40.805Z,11.33
2018-12-08T06:10:09.950Z,11.34
2018-12-08T06:12:39.148Z,11.36
2018-12-08T06:15:08.312Z,11.38
2018-12-08T06:17:37.558Z,11.39
2018-12-08T06:20:07.521Z,11.38
2018-12-08T06:22:36.632Z,11.38
2018-12-08T06:25:07.293Z,11.38
2018-12-08T06:28:41.309Z,11.38
2018-12-08T06:31:10.451Z,11.37
2018-12-08T06:33:39.635Z,11.36
2018-12-08T06:36:08.811Z,11.37
2018-12-08T06:38:37.885Z,11.38
2018-12-08T06:41:07.009Z,11.39
2018-12-08T06:43:39.824Z,11.37
2018-12-08T06:46:08.931Z,11.35
2018-12-08T06:48:37.980Z,11.31
2018-12-08T06:51:07.145Z,11.25
2018-12-08T06:53:36.375Z,11.19
2018-12-08T06:56:06.908Z,11.14
2018-12-08T06:58:35.998Z,11.13
2018-12-08T07:01:05.150Z,11.15
2018-12-08T07:03:34.297Z,11.17
2018-12-08T07:06:03.497Z,11.19
2018-12-08T07:08:32.555Z,11.22
2018-12-08T07:11:01.680Z,11.24
2018-12-08T07:13:30.981Z,11.22
2018-12-08T07:16:00.182Z,11.22
2018-12-08T07:18:29.323Z,11.22
2018-12-08T07:20:58.936Z,11.25
2018-12-08T07:23:28.177Z,11.27
2018-12-08T07:25:57.370Z,11.22
2018-12-08T07:28:26.529Z,11.18
2018-12-08T07:30:55.666Z,11.14
2018-12-08T07:33:24.811Z,11.13
2018-12-08T07:35:53.904Z,11.13
2018-12-08T07:38:23.027Z,11.14
2018-12-08T07:40:52.168Z,11.15
2018-12-08T07:43:21.328Z,11.18
2018-12-08T07:45:50.486Z,11.20
2018-12-08T07:48:19.686Z,11.21
2018-12-08T07:50:48.852Z,11.21
2018-12-08T07:53:18.022Z,11.20
2018-12-08T07:55:47.205Z,11.17
2018-12-08T07:58:16.520Z,11.15
2018-12-08T08:00:45.640Z,11.13
2018-12-08T08:03:14.892Z,11.10
2018-12-08T08:05:44.087Z,11.09
2018-12-08T08:08:13.394Z,11.07
2018-12-08T08:10:42.693Z,11.06
2018-12-08T08:13:11.902Z,11.03
2018-12-08T08:15:41.087Z,11.03
2018-12-08T08:18:10.441Z,11.03
2018-12-08T08:20:42.571Z,11.03
2018-12-08T08:23:12.143Z,11.01
2018-12-08T08:25:41.249Z,10.99
2018-12-08T08:28:11.535Z,11.03
2018-12-08T08:30:40.655Z,11.06
2018-12-08T08:33:09.722Z,11.06
2018-12-08T08:35:39.807Z,11.07
2018-12-08T08:38:10.730Z,11.07
2018-12-08T08:40:39.785Z,11.08
2018-12-08T08:43:09.008Z,11.08
2018-12-08T08:45:38.020Z,11.09
2018-12-08T08:48:07.249Z,11.10
2018-12-08T08:50:36.372Z,11.10
2018-12-08T08:53:07.287Z,11.14
2018-12-08T08:55:36.923Z,11.16
2018-12-08T08:58:06.041Z,11.18
2018-12-08T09:00:35.169Z,11.16
2018-12-08T09:03:04.214Z,11.17
2018-12-08T09:05:33.453Z,11.19
2018-12-08T09:08:07.046Z,11.21
2018-12-08T09:10:36.195Z,11.23
2018-12-08T09:13:05.304Z,11.24
2018-12-08T09:15:34.467Z,11.26
2018-12-08T09:18:03.757Z,11.28
2018-12-08T09:20:33.678Z,11.29
2018-12-08T09:23:02.909Z,11.31
2018-12-08T09:25:32.592Z,11.31
2018-12-08T09:28:01.857Z,11.32
2018-12-08T09:30:31.505Z,11.35
2018-12-08T09:33:00.757Z,11.38
2018-12-08T09:35:30.135Z,11.42
2018-12-08T09:37:59.470Z,11.46
2018-12-08T09:40:29.494Z,11.49
2018-12-08T09:42:58.629Z,11.50
2018-12-08T09:45:28.020Z,11.53
2018-12-08T09:47:57.795Z,11.57
2018-12-08T09:50:27.918Z,11.57
2018-12-08T09:53:20.801Z,11.60
2018-12-08T09:56:01.555Z,11.64
2018-12-08T09:58:39.086Z,11.64
2018-12-08T10:01:24.277Z,11.65
2018-12-08T10:03:53.613Z,11.68
2018-12-08T10:06:23.619Z,11.68
2018-12-08T10:08:52.831Z,11.69
2018-12-08T10:11:22.035Z,11.70
2018-12-08T10:13:51.891Z,11.69
2018-12-08T10:16:21.403Z,11.70
2018-12-08T10:18:50.872Z,11.70
2018-12-08T10:21:20.971Z,11.72
2018-12-08T10:23:50.694Z,11.73
2018-12-08T10:26:21.579Z,11.75
2018-12-08T10:28:50.971Z,11.74
2018-12-08T10:31:20.474Z,11.73
2018-12-08T10:33:49.740Z,11.74
2018-12-08T10:36:20.761Z,11.74
2018-12-08T10:38:50.791Z,11.77
2018-12-08T10:41:19.968Z,11.79
2018-12-08T10:43:49.473Z,11.83
2018-12-08T10:46:19.617Z,11.88
2018-12-08T10:48:50.139Z,11.89
2018-12-08T10:51:19.334Z,11.91
2018-12-08T10:53:49.248Z,11.94
2018-12-08T10:56:18.585Z,11.94
2018-12-08T10:58:48.662Z,11.97
2018-12-08T11:01:20.393Z,11.99
2018-12-08T11:03:52.759Z,12.02
2018-12-08T11:06:24.579Z,12.04
2018-12-08T11:08:55.518Z,12.07
2018-12-08T11:11:24.733Z,12.09
2018-12-08T11:13:53.981Z,12.14
2018-12-08T11:16:23.332Z,12.15
2018-12-08T11:18:54.038Z,12.18
2018-12-08T11:21:23.394Z,12.18
2018-12-08T11:23:52.591Z,12.19
2018-12-08T11:26:21.838Z,12.19
2018-12-08T11:28:51.793Z,12.19
2018-12-08T11:31:21.216Z,12.20
2018-12-08T11:33:51.366Z,12.21
2018-12-08T11:36:20.585Z,12.22
2018-12-08T11:38:54.292Z,12.26
2018-12-08T11:41:23.335Z,12.29
2018-12-08T11:43:52.552Z,12.32
2018-12-08T11:46:21.745Z,12.33
2018-12-08T11:48:53.110Z,12.35
2018-12-08T11:51:22.945Z,12.36
2018-12-08T11:53:52.051Z,12.36
2018-12-08T11:56:22.351Z,12.37
2018-12-08T11:58:51.632Z,12.38
2018-12-08T12:01:21.020Z,12.40
2018-12-08T12:03:50.967Z,12.42
2018-12-08T12:06:20.961Z,12.46
2018-12-08T12:08:53.365Z,12.49
2018-12-08T12:11:22.656Z,12.50
2018-12-08T12:13:52.210Z,12.52
2018-12-08T12:16:21.597Z,12.53
2018-12-08T12:18:50.892Z,12.54
2018-12-08T12:21:20.064Z,12.56
2018-12-08T12:23:49.222Z,12.58
2018-12-08T12:26:18.448Z,12.61
2018-12-08T12:28:47.636Z,12.63
2018-12-08T12:31:16.889Z,12.68
2018-12-08T12:33:47.378Z,12.69
2018-12-08T12:36:16.650Z,12.69
2018-12-08T12:38:46.050Z,12.67
2018-12-08T12:41:15.320Z,12.65
2018-12-08T12:43:45.021Z,12.66
2018-12-08T12:46:14.535Z,12.68
2018-12-08T12:48:43.901Z,12.69
2018-12-08T12:51:13.139Z,12.72
2018-12-08T12:53:43.154Z,12.75
2018-12-08T12:56:13.223Z,12.75
2018-12-08T12:58:42.642Z,12.75
2018-12-08T13:01:11.927Z,12.74
2018-12-08T13:03:41.013Z,12.72
2018-12-08T13:06:10.173Z,12.71
2018-12-08T13:08:39.333Z,12.70
2018-12-08T13:11:09.292Z,12.70
2018-12-08T13:13:38.470Z,12.73
2018-12-08T13:16:07.750Z,12.74
2018-12-08T13:18:38.316Z,12.75
2018-12-08T13:21:07.745Z,12.73
2018-12-08T13:23:37.940Z,12.72
2018-12-08T13:26:10.063Z,12.71
2018-12-08T13:28:39.412Z,12.72
2018-12-08T13:31:13.025Z,12.72
2018-12-08T13:33:42.228Z,12.73
2018-12-08T13:36:12.883Z,12.74
2018-12-08T13:38:42.265Z,12.73
2018-12-08T13:41:11.587Z,12.72
2018-12-08T13:43:40.865Z,12.71
2018-12-08T13:46:10.657Z,12.70
2018-12-08T13:48:40.767Z,12.71
2018-12-08T13:51:10.030Z,12.70
2018-12-08T13:53:39.231Z,12.69
2018-12-08T13:56:08.437Z,12.66
2018-12-08T13:58:37.948Z,12.65
2018-12-08T14:01:09.236Z,12.65
2018-12-08T14:03:38.909Z,12.59
2018-12-08T14:06:09.675Z,12.52
2018-12-08T14:08:39.628Z,12.46
2018-12-08T14:11:08.902Z,12.43
2018-12-08T14:13:38.194Z,12.42
2018-12-08T14:16:07.599Z,12.41
2018-12-08T14:18:37.001Z,12.40
2018-12-08T14:21:07.107Z,12.42
2018-12-08T14:23:36.434Z,12.48
2018-12-08T14:26:05.732Z,12.54
2018-12-08T14:28:36.123Z,12.64
2018-12-08T14:31:07.153Z,12.72
2018-12-08T14:33:37.766Z,12.74
2018-12-08T14:36:07.234Z,12.76
2018-12-08T14:38:36.351Z,12.77
2018-12-08T14:41:06.603Z,12.82
2018-12-08T14:43:36.872Z,12.87
2018-12-08T14:46:06.075Z,12.89
2018-12-08T14:48:35.337Z,12.84
2018-12-08T14:51:04.791Z,12.79
2018-12-08T14:53:35.217Z,12.73
2018-12-08T14:56:04.886Z,12.67
2018-12-08T14:58:34.131Z,12.60
2018-12-08T15:01:03.438Z,12.57
2018-12-08T15:03:32.740Z,12.56
2018-12-08T15:06:02.152Z,12.58
2018-12-08T15:08:32.569Z,12.56
2018-12-08T15:11:02.416Z,12.56
2018-12-08T15:13:32.242Z,12.58
2018-12-08T15:16:02.139Z,12.59
2018-12-08T15:18:31.511Z,12.57
2018-12-08T15:21:01.640Z,12.57
2018-12-08T15:23:30.855Z,12.58
2018-12-08T15:26:00.227Z,12.58
2018-12-08T15:28:31.165Z,12.58
2018-12-08T15:31:00.874Z,12.55
2018-12-08T15:33:30.337Z,12.51
2018-12-08T15:35:59.473Z,12.48
2018-12-08T15:38:29.551Z,12.48
2018-12-08T15:41:00.440Z,12.49
2018-12-08T15:43:29.673Z,12.51
2018-12-08T15:45:58.944Z,12.54
2018-12-08T15:48:28.142Z,12.54
2018-12-08T15:50:57.529Z,12.56
2018-12-08T15:53:28.402Z,12.56
2018-12-08T15:55:57.473Z,12.56
2018-12-08T15:58:26.619Z,12.53
2018-12-08T16:00:56.722Z,12.47
2018-12-08T16:03:26.502Z,12.35
2018-12-08T16:05:55.595Z,12.23
2018-12-08T16:08:25.726Z,12.12
2018-12-08T16:10:55.740Z,12.02
2018-12-08T16:13:24.841Z,11.98
2018-12-08T16:15:54.049Z,11.97
2018-12-08T16:18:23.236Z,11.99
2018-12-08T16:20:53.249Z,12.01
2018-12-08T16:23:22.646Z,12.05
2018-12-08T16:25:51.782Z,12.10
2018-12-08T16:28:21.775Z,12.12
2018-12-08T16:30:50.924Z,12.12
2018-12-08T16:33:20.874Z,12.11
2018-12-08T16:35:51.139Z,12.13
2018-12-08T16:38:21.800Z,12.15
2018-12-08T16:40:51.338Z,12.20
2018-12-08T16:43:20.972Z,12.22
2018-12-08T16:45:51.178Z,12.24
2018-12-08T16:48:20.386Z,12.27
2018-12-08T16:50:49.668Z,12.27
2018-12-08T16:53:19.003Z,12.28
2018-12-08T16:55:48.092Z,12.28
2018-12-08T16:58:18.525Z,12.28
2018-12-08T17:00:48.197Z,12.30
2018-12-08T17:03:18.554Z,12.31
2018-12-08T17:05:47.839Z,12.31
2018-12-08T17:08:19.901Z,12.31
2018-12-08T17:10:49.081Z,12.32
2018-12-08T17:13:18.990Z,12.33
2018-12-08T17:15:48.129Z,12.32
2018-12-08T17:18:17.443Z,12.30
2018-12-08T17:20:49.612Z,12.27
2018-12-08T17:23:18.856Z,12.25
2018-12-08T17:25:48.144Z,12.25
2018-12-08T17:28:17.557Z,12.24
2018-12-08T17:30:47.402Z,12.25
2018-12-08T17:33:16.705Z,12.20
2018-12-08T17:35:46.946Z,12.18
2018-12-08T17:38:16.086Z,12.18
2018-12-08T17:40:46.347Z,12.16
2018-12-08T17:43:16.241Z,12.15
2018-12-08T17:45:45.317Z,12.15
2018-12-08T17:48:14.554Z,12.17
2018-12-08T17:50:44.128Z,12.20
2018-12-08T17:53:13.334Z,12.18
2018-12-08T17:55:42.522Z,12.16
2018-12-08T17:58:11.847Z,12.12
2018-12-08T18:00:41.103Z,12.08
2018-12-08T18:03:10.374Z,12.07
2018-12-08T18:05:39.495Z,12.07
2018-12-08T18:08:09.311Z,12.09
2018-12-08T18:10:39.448Z,12.08
2018-12-08T18:13:12.175Z,12.06
2018-12-08T18:15:41.409Z,12.04
2018-12-08T18:18:10.475Z,12.04
2018-12-08T18:20:39.566Z,12.04
2018-12-08T18:23:10.006Z,12.04
2018-12-08T18:25:39.294Z,12.05
2018-12-08T18:28:09.059Z,12.06
2018-12-08T18:30:38.267Z,12.06
2018-12-08T18:33:07.474Z,12.07
2018-12-08T18:38:12.642Z,12.06
2018-12-08T18:40:41.707Z,12.04
2018-12-08T18:43:11.674Z,12.05
2018-12-08T18:45:41.102Z,12.05
2018-12-08T18:48:11.201Z,12.06
2018-12-08T18:50:41.113Z,12.07
2018-12-08T18:53:10.288Z,12.09
2018-12-08T18:55:39.311Z,12.09
2018-12-08T18:58:08.419Z,12.08
2018-12-08T19:00:37.601Z,12.08
2018-12-08T19:03:07.690Z,12.08
2018-12-08T19:05:37.160Z,12.07
2018-12-08T19:08:06.485Z,12.06
2018-12-08T19:10:35.574Z,12.07
2018-12-08T19:13:05.079Z,12.07
2018-12-08T19:15:34.174Z,12.07
2018-12-08T19:18:03.570Z,12.06
2018-12-08T19:20:32.641Z,12.06
2018-12-08T19:23:02.441Z,12.05
2018-12-08T19:25:31.780Z,12.06
2018-12-08T19:28:00.948Z,12.06
2018-12-08T19:30:29.966Z,12.05
2018-12-08T19:32:59.229Z,12.02
2018-12-08T19:35:28.333Z,12.01
2018-12-08T19:37:57.407Z,11.99
2018-12-08T19:40:26.689Z,11.93
2018-12-08T19:42:55.873Z,11.88
2018-12-08T19:45:25.289Z,11.86
2018-12-08T19:47:54.861Z,11.79
2018-12-08T19:50:24.367Z,11.72
2018-12-08T19:52:53.718Z,11.67
2018-12-08T19:55:22.895Z,11.66
2018-12-08T19:57:52.176Z,11.63
2018-12-08T20:00:21.897Z,11.65
2018-12-08T20:02:51.157Z,11.70
2018-12-08T20:05:20.595Z,11.75
2018-12-08T20:07:51.147Z,11.81
2018-12-08T20:12:53.662Z,11.89
2018-12-08T20:15:22.867Z,11.93
2018-12-08T20:17:52.367Z,11.94
2018-12-08T20:20:21.546Z,11.93
2018-12-08T20:22:50.889Z,11.93
2018-12-08T20:25:21.777Z,11.92
2018-12-08T20:27:51.446Z,11.93
2018-12-08T20:30:20.618Z,11.94
2018-12-08T20:32:50.057Z,11.94
2018-12-08T20:35:19.175Z,11.95
2018-12-08T20:37:48.787Z,11.95
2018-12-08T20:40:18.289Z,11.97
2018-12-08T20:42:48.304Z,12.02
2018-12-08T20:45:31.136Z,12.07
2018-12-08T20:48:01.087Z,12.07
2018-12-08T20:50:31.131Z,11.77
2018-12-08T20:53:05.576Z,11.44
2018-12-08T20:55:38.822Z,11.22
2018-12-08T20:58:09.365Z,11.02
2018-12-08T21:17:55.833Z,10.76
2018-12-08T21:20:25.403Z,10.75
2018-12-08T21:22:54.622Z,10.72
2018-12-08T21:25:24.029Z,10.80
2018-12-08T21:27:53.241Z,10.82
2018-12-08T21:30:23.422Z,10.88
2018-12-08T21:32:52.657Z,10.90
2018-12-08T21:35:22.883Z,10.98
2018-12-08T21:37:51.959Z,11.10
2018-12-08T21:40:28.824Z,11.22
2018-12-08T21:42:58.053Z,11.31
2018-12-08T21:45:28.399Z,11.36
2018-12-08T21:47:57.559Z,11.41
2018-12-08T21:50:26.871Z,11.46
2018-12-08T21:52:56.266Z,11.48
2018-12-08T21:55:25.390Z,11.52
2018-12-08T21:57:54.645Z,11.57
2018-12-08T22:00:23.911Z,11.59
2018-12-08T22:02:53.029Z,11.64
2018-12-08T22:05:22.321Z,11.69
2018-12-08T22:07:51.547Z,11.71
2018-12-08T22:10:21.421Z,11.69
2018-12-08T22:12:50.432Z,11.65
2018-12-08T22:15:19.583Z,11.63
2018-12-08T22:17:48.708Z,11.60
2018-12-08T22:20:18.005Z,11.57
2018-12-08T22:22:48.068Z,11.56
2018-12-08T22:25:17.967Z,11.58
2018-12-08T22:27:47.081Z,11.62
2018-12-08T22:30:16.212Z,11.60
2018-12-08T22:32:45.369Z,11.55
2018-12-08T22:35:15.137Z,11.52
2018-12-08T22:37:44.643Z,11.50
2018-12-08T22:40:16.423Z,11.44
2018-12-08T22:42:45.822Z,11.37
2018-12-08T22:45:15.460Z,11.36
2018-12-08T22:47:44.682Z,11.40
2018-12-08T22:50:14.068Z,11.45
2018-12-08T22:52:51.253Z,11.52
2018-12-08T22:55:20.560Z,11.58
2018-12-08T22:57:50.443Z,11.63
2018-12-08T23:00:41.394Z,11.66
2018-12-08T23:03:11.902Z,11.65
2018-12-08T23:05:41.209Z,11.66
2018-12-08T23:08:10.974Z,11.68
2018-12-08T23:10:46.297Z,11.64
2018-12-08T23:13:16.726Z,11.60
2018-12-08T23:15:46.030Z,11.58
2018-12-08T23:18:49.485Z,11.57
2018-12-08T23:24:49.837Z,11.59
2018-12-08T23:27:21.666Z,11.59
2018-12-08T23:30:11.262Z,11.60
2018-12-08T23:32:58.820Z,11.61
2018-12-08T23:35:44.827Z,11.64
2018-12-08T23:38:38.263Z,11.65
2018-12-08T23:41:26.466Z,11.65
2018-12-08T23:58:22.257Z,11.58
